Time;durP1;ratioP1;P1;durP2;ratioP2;P2;SDS_P1;SDS_P2;PMS_P1;PMS_P2;Temp;Humidity;BMP_temperature;BMP_pressure;BME280_temperature;BME280_humidity;BME280_pressure;Samples;Min_cycle;Max_cycle;Signal;HPM_P1;HPM_P2
2021/04/11 00:01:09;;;;;;;32.20;25.87;;;7.30;99.90;;;;;;5036560;28;20186;-94
2021/04/11 00:03:34;;;;;;;33.60;25.70;;;7.30;99.90;;;;;;5036882;28;20182;-94
2021/04/11 00:06:00;;;;;;;32.00;26.07;;;7.30;99.90;;;;;;5036688;28;20231;-95
2021/04/11 00:08:26;;;;;;;32.70;26.90;;;7.30;99.90;;;;;;5036482;28;20210;-94
2021/04/11 00:10:57;;;;;;;35.03;27.80;;;7.30;99.90;;;;;;5036312;28;20183;-94
2021/04/11 00:13:32;;;;;;;33.20;27.70;;;7.30;99.90;;;;;;5036076;28;20194;-94
2021/04/11 00:15:58;;;;;;;35.33;28.33;;;7.30;99.90;;;;;;5036419;28;20173;-94
2021/04/11 00:18:24;;;;;;;35.77;28.40;;;7.30;99.90;;;;;;5036476;28;20175;-94
2021/04/11 00:20:50;;;;;;;37.07;30.67;;;7.30;99.90;;;;;;5036592;28;20189;-93
2021/04/11 00:23:18;;;;;;;37.80;31.07;;;7.30;99.90;;;;;;5036095;28;20226;-94
2021/04/11 00:25:44;;;;;;;38.60;30.30;;;7.30;99.90;;;;;;5036243;28;20613;-95
2021/04/11 00:28:12;;;;;;;40.53;30.07;;;7.30;99.90;;;;;;5036300;28;20272;-95
2021/04/11 00:30:39;;;;;;;39.07;31.00;;;7.30;99.90;;;;;;5036292;28;20514;-96
2021/04/11 00:33:08;;;;;;;39.30;30.50;;;7.30;99.90;;;;;;5036386;28;20257;-95
2021/04/11 00:35:34;;;;;;;40.57;31.70;;;7.30;99.90;;;;;;5036634;28;20179;-95
2021/04/11 00:38:01;;;;;;;42.00;32.50;;;7.40;99.90;;;;;;5036229;28;20266;-95
2021/04/11 00:40:28;;;;;;;43.77;32.20;;;7.40;99.90;;;;;;5036057;28;20185;-95
2021/04/11 00:43:12;;;;;;;40.43;32.40;;;7.40;99.90;;;;;;5035763;28;20616;-96
2021/04/11 00:45:50;;;;;;;42.07;33.37;;;7.40;99.90;;;;;;5035899;28;20193;-94
2021/04/11 00:48:18;;;;;;;42.83;33.63;;;7.40;99.90;;;;;;5035571;28;20563;-96
2021/04/11 00:51:05;;;;;;;43.70;33.80;;;7.40;99.90;;;;;;5034564;28;20179;-96
2021/04/11 00:53:31;;;;;;;45.00;34.23;;;7.40;99.90;;;;;;5035792;28;20175;-95
2021/04/11 00:55:56;;;;;;;46.37;35.53;;;7.40;99.90;;;;;;5035630;28;20213;-95
2021/04/11 00:58:24;;;;;;;45.97;33.77;;;7.40;99.90;;;;;;5035508;28;20520;-95
2021/04/11 01:00:50;;;;;;;51.20;36.07;;;7.40;99.90;;;;;;5035516;28;20273;-94
2021/04/11 01:03:22;;;;;;;47.00;35.53;;;7.40;99.90;;;;;;5035566;28;20182;-92
2021/04/11 01:05:49;;;;;;;48.23;35.53;;;7.40;99.90;;;;;;5036913;28;20163;-94
2021/04/11 01:08:18;;;;;;;48.70;37.07;;;7.40;99.90;;;;;;5035651;28;20249;-94
2021/04/11 01:10:55;;;;;;;47.27;35.57;;;7.40;99.90;;;;;;5035272;28;20201;-96
2021/04/11 01:13:22;;;;;;;50.07;37.80;;;7.40;99.90;;;;;;5035165;28;20527;-93
2021/04/11 01:15:48;;;;;;;50.60;38.03;;;7.50;99.90;;;;;;5034873;28;20267;-95
2021/04/11 01:18:14;;;;;;;48.40;36.87;;;7.40;99.90;;;;;;5035356;28;20170;-95
2021/04/11 01:20:40;;;;;;;54.10;39.77;;;7.50;99.90;;;;;;5035346;28;20183;-94
2021/04/11 01:23:16;;;;;;;57.27;40.60;;;7.40;99.90;;;;;;5035031;28;20226;-96
2021/04/11 01:25:43;;;;;;;53.17;39.40;;;7.40;99.90;;;;;;5035179;28;20178;-95
2021/04/11 01:28:14;;;;;;;54.77;40.87;;;7.50;99.90;;;;;;5034730;28;20206;-94
2021/04/11 01:30:43;;;;;;;52.17;39.73;;;7.40;99.90;;;;;;5035333;28;20610;-94
2021/04/11 01:33:18;;;;;;;58.97;41.47;;;7.40;99.90;;;;;;5035304;28;20179;-94
2021/04/11 01:35:46;;;;;;;55.53;40.57;;;7.50;99.90;;;;;;5035070;28;20166;-96
2021/04/11 01:38:14;;;;;;;57.90;40.63;;;7.50;99.90;;;;;;5035296;28;20261;-95
2021/04/11 01:41:03;;;;;;;60.60;42.70;;;7.50;99.90;;;;;;5035068;28;20273;-96
2021/04/11 01:43:30;;;;;;;57.33;41.93;;;7.50;99.90;;;;;;5034442;28;20202;-95
2021/04/11 01:45:57;;;;;;;60.87;42.43;;;7.50;99.90;;;;;;5032365;28;20213;-92
2021/04/11 01:48:24;;;;;;;59.17;42.77;;;7.50;99.90;;;;;;5025596;28;20225;-94
2021/04/11 01:50:51;;;;;;;60.93;42.93;;;7.60;99.90;;;;;;5035266;28;20183;-94
2021/04/11 01:53:18;;;;;;;65.17;44.87;;;7.60;99.90;;;;;;5034722;28;20186;-94
2021/04/11 01:55:44;;;;;;;60.77;43.73;;;7.50;99.90;;;;;;5031840;28;20281;-94
2021/04/11 01:58:12;;;;;;;62.90;43.53;;;7.60;99.90;;;;;;5034171;28;20175;-93
2021/04/11 02:00:49;;;;;;;60.03;44.20;;;7.50;99.90;;;;;;5034795;28;20179;-95
2021/04/11 02:03:18;;;;;;;60.77;44.83;;;7.60;99.90;;;;;;5034708;28;20197;-95
2021/04/11 02:05:48;;;;;;;62.03;44.57;;;7.50;99.90;;;;;;5033068;28;20189;-94
2021/04/11 02:08:23;;;;;;;60.77;45.57;;;7.60;99.90;;;;;;5034633;28;20218;-94
2021/04/11 02:10:54;;;;;;;66.10;46.10;;;7.60;99.90;;;;;;5033643;28;20189;-94
2021/04/11 02:13:36;;;;;;;69.40;46.43;;;7.60;99.90;;;;;;5034628;28;20179;-94
2021/04/11 02:16:05;;;;;;;65.63;47.23;;;7.60;99.90;;;;;;5033849;28;20605;-93
2021/04/11 02:18:33;;;;;;;65.33;48.60;;;7.60;99.90;;;;;;5031019;28;20202;-93
2021/04/11 02:21:00;;;;;;;66.67;47.90;;;7.50;99.90;;;;;;5014865;28;20179;-94
2021/04/11 02:23:28;;;;;;;71.77;49.77;;;7.60;99.90;;;;;;5014617;28;20282;-94
2021/04/11 02:25:55;;;;;;;68.00;50.60;;;7.60;99.90;;;;;;5014179;28;20179;-95
2021/04/11 02:28:27;;;;;;;69.20;51.10;;;7.60;99.90;;;;;;5014390;28;20207;-95
2021/04/11 02:30:56;;;;;;;68.23;50.00;;;7.50;99.90;;;;;;5014162;28;20266;-94
2021/04/11 02:33:24;;;;;;;66.67;48.23;;;7.60;99.90;;;;;;5014393;28;20179;-94
2021/04/11 02:35:51;;;;;;;73.03;51.13;;;7.50;99.90;;;;;;5014280;28;20179;-94
2021/04/11 02:38:20;;;;;;;73.77;49.67;;;7.50;99.90;;;;;;5015541;28;20203;-95
2021/04/11 02:40:49;;;;;;;68.07;50.23;;;7.50;99.90;;;;;;5014014;28;20203;-94
2021/04/11 02:43:15;;;;;;;66.37;48.03;;;7.50;99.90;;;;;;5014704;28;20179;-95
2021/04/11 02:45:44;;;;;;;74.57;50.87;;;7.50;99.90;;;;;;5014452;28;20187;-95
2021/04/11 02:48:12;;;;;;;72.63;50.13;;;7.50;99.90;;;;;;5031418;28;20218;-94
2021/04/11 02:50:41;;;;;;;75.67;49.63;;;7.50;99.90;;;;;;5033959;28;20174;-94
2021/04/11 02:53:20;;;;;;;72.17;49.80;;;7.60;99.90;;;;;;5034133;28;20182;-94
2021/04/11 02:55:47;;;;;;;68.90;50.13;;;7.60;99.90;;;;;;5032676;28;20194;-93
2021/04/11 02:58:16;;;;;;;71.33;50.37;;;7.50;99.90;;;;;;5034099;28;20228;-94
2021/04/11 03:01:13;;;;;;;74.70;51.20;;;7.50;99.90;;;;;;5033883;28;20178;-96
2021/04/11 03:03:39;;;;;;;70.33;48.70;;;7.60;99.90;;;;;;5018215;28;20195;-94
2021/04/11 03:06:14;;;;;;;68.57;49.53;;;7.50;99.90;;;;;;5014321;28;20190;-94
2021/04/11 03:08:42;;;;;;;67.93;49.43;;;7.50;99.90;;;;;;5025239;28;20267;-94
2021/04/11 03:11:26;;;;;;;65.77;49.20;;;7.50;99.90;;;;;;5034046;28;20601;-93
2021/04/11 03:13:53;;;;;;;70.20;49.50;;;7.60;99.90;;;;;;5035840;28;20205;-95
2021/04/11 03:16:20;;;;;;;71.40;50.77;;;7.60;99.90;;;;;;5037558;28;20220;-93
2021/04/11 03:18:46;;;;;;;70.90;50.23;;;7.60;99.90;;;;;;5037617;28;20178;-93
2021/04/11 03:21:13;;;;;;;72.67;52.17;;;7.60;99.90;;;;;;5037735;28;20768;-92
2021/04/11 03:23:39;;;;;;;66.80;49.43;;;7.60;99.90;;;;;;5020817;28;20237;-94
2021/04/11 03:26:27;;;;;;;74.13;51.57;;;7.60;99.90;;;;;;5037563;28;20266;-94
2021/04/11 03:29:02;;;;;;;73.97;50.60;;;7.60;99.90;;;;;;5037937;28;20197;-94
2021/04/11 03:31:47;;;;;;;71.00;50.43;;;7.50;99.90;;;;;;5038572;28;20616;-93
2021/04/11 03:34:17;;;;;;;72.70;50.10;;;7.60;99.90;;;;;;5037480;28;20201;-95
2021/04/11 03:36:44;;;;;;;74.63;52.00;;;7.60;99.90;;;;;;5037186;28;20179;-92
2021/04/11 03:39:12;;;;;;;78.07;52.17;;;7.60;99.90;;;;;;5037320;28;20217;-94
2021/04/11 03:41:38;;;;;;;73.57;51.97;;;7.60;99.90;;;;;;5037195;28;20768;-93
2021/04/11 03:44:13;;;;;;;70.63;51.63;;;7.60;99.90;;;;;;5037183;28;20555;-93
2021/04/11 03:47:00;;;;;;;74.20;52.90;;;7.60;99.90;;;;;;5036396;28;20186;-94
2021/04/11 03:49:32;;;;;;;71.53;51.33;;;7.60;99.90;;;;;;5037320;28;20178;-94
2021/04/11 03:52:00;;;;;;;72.77;51.27;;;7.60;99.90;;;;;;5036370;28;20171;-93
2021/04/11 03:54:33;;;;;;;74.07;52.90;;;7.60;99.90;;;;;;5036756;28;20265;-94
2021/04/11 03:57:23;;;;;;;73.07;50.10;;;7.50;99.90;;;;;;5035819;28;20170;-94
2021/04/11 03:59:58;;;;;;;75.63;51.73;;;7.60;99.90;;;;;;5036762;28;20185;-94
2021/04/11 04:02:26;;;;;;;72.13;52.77;;;7.50;99.90;;;;;;5036526;28;20166;-94
2021/04/11 04:04:54;;;;;;;70.47;50.67;;;7.60;99.90;;;;;;5035607;28;20185;-94
2021/04/11 04:07:21;;;;;;;69.73;52.17;;;7.50;99.90;;;;;;5036497;28;20202;-95
2021/04/11 04:09:54;;;;;;;70.20;52.27;;;7.50;99.90;;;;;;5030983;28;20187;-93
2021/04/11 04:13:02;;;;;;;71.40;51.60;;;7.50;99.90;;;;;;5016529;28;20172;-92
2021/04/11 04:16:09;;;;;;;67.43;49.27;;;7.60;99.90;;;;;;5017594;28;20543;-95
2021/04/11 04:18:50;;;;;;;69.43;49.70;;;7.50;99.90;;;;;;5016737;28;20606;-94
2021/04/11 04:21:51;;;;;;;65.57;49.57;;;7.50;99.90;;;;;;5016399;28;20182;-92
2021/04/11 04:24:44;;;;;;;72.00;51.13;;;7.50;99.90;;;;;;5016108;28;20183;-92
2021/04/11 04:27:22;;;;;;;74.90;51.43;;;7.50;99.90;;;;;;5015860;28;20653;-94
2021/04/11 04:29:50;;;;;;;71.63;51.77;;;7.60;99.90;;;;;;5016386;28;20218;-92
2021/04/11 04:32:54;;;;;;;74.40;52.67;;;7.50;99.90;;;;;;5016217;28;20606;-92
2021/04/11 04:35:47;;;;;;;70.00;51.10;;;7.50;99.90;;;;;;5015990;28;20167;-93
2021/04/11 04:38:29;;;;;;;69.13;51.90;;;7.60;99.90;;;;;;5016108;28;20179;-94
2021/04/11 04:40:58;;;;;;;71.33;51.07;;;7.50;99.90;;;;;;5026381;28;20183;-93
2021/04/11 04:43:56;;;;;;;70.27;51.73;;;7.60;99.90;;;;;;5020298;28;20277;-94
2021/04/11 04:46:39;;;;;;;71.57;51.57;;;7.60;99.90;;;;;;5035630;28;20182;-94
2021/04/11 04:49:39;;;;;;;80.20;54.07;;;7.50;99.90;;;;;;5035958;28;20183;-95
2021/04/11 04:52:17;;;;;;;72.63;52.83;;;7.60;99.90;;;;;;5035878;28;20178;-94
2021/04/11 04:54:50;;;;;;;73.67;51.60;;;7.60;99.90;;;;;;5035745;28;20178;-94
2021/04/11 04:57:31;;;;;;;73.53;52.87;;;7.60;99.90;;;;;;5035850;28;20181;-95
2021/04/11 05:00:20;;;;;;;74.50;52.33;;;7.60;99.90;;;;;;5035362;28;20317;-95
2021/04/11 05:03:16;;;;;;;73.07;52.47;;;7.60;99.90;;;;;;5035517;28;20631;-95
2021/04/11 05:06:04;;;;;;;74.33;52.37;;;7.60;99.90;;;;;;5028731;28;20226;-95
2021/04/11 05:08:39;;;;;;;79.47;53.53;;;7.60;99.90;;;;;;5035364;28;20259;-92
2021/04/11 05:11:21;;;;;;;76.13;53.57;;;7.70;99.90;;;;;;5035115;28;20202;-93
2021/04/11 05:13:58;;;;;;;72.00;50.27;;;7.70;99.90;;;;;;5035623;28;20501;-95
2021/04/11 05:16:34;;;;;;;73.80;52.33;;;7.70;99.90;;;;;;5035157;28;20167;-94
2021/04/11 05:19:40;;;;;;;71.73;51.50;;;7.70;99.90;;;;;;5035242;28;20170;-93
2021/04/11 05:22:32;;;;;;;71.23;49.83;;;7.70;99.90;;;;;;5026431;28;20214;-93
2021/04/11 05:25:28;;;;;;;70.70;50.63;;;7.70;99.90;;;;;;5007474;28;20186;-95
2021/04/11 05:28:26;;;;;;;68.53;49.67;;;7.70;99.90;;;;;;5034887;28;20638;-95
2021/04/11 05:31:04;;;;;;;76.33;52.10;;;7.70;99.90;;;;;;5035029;28;20174;-94
2021/04/11 05:33:33;;;;;;;69.73;48.70;;;7.70;99.90;;;;;;5035068;28;20199;-95
2021/04/11 05:36:27;;;;;;;69.13;48.67;;;7.70;99.90;;;;;;5034129;28;20209;-95
2021/04/11 05:39:08;;;;;;;68.47;48.70;;;7.80;99.90;;;;;;5035292;28;20202;-95
2021/04/11 05:42:06;;;;;;;67.70;49.40;;;7.80;99.90;;;;;;5034464;28;20186;-94
2021/04/11 05:44:42;;;;;;;68.20;46.97;;;7.80;99.90;;;;;;5034482;28;20178;-95
2021/04/11 05:47:11;;;;;;;67.30;48.87;;;7.80;99.90;;;;;;5025262;28;20649;-94
2021/04/11 05:49:53;;;;;;;64.63;46.40;;;7.80;99.90;;;;;;5017477;28;20609;-94
2021/04/11 05:52:31;;;;;;;65.00;46.93;;;7.90;99.90;;;;;;5022189;28;20243;-93
2021/04/11 05:55:00;;;;;;;64.70;46.10;;;7.90;99.90;;;;;;5024920;28;20624;-93
2021/04/11 05:57:30;;;;;;;62.47;45.77;;;7.90;99.90;;;;;;5024690;28;20198;-93
2021/04/11 06:00:11;;;;;;;61.03;44.90;;;7.90;99.90;;;;;;5025339;28;20182;-93
2021/04/11 06:02:50;;;;;;;63.67;45.33;;;8.00;99.90;;;;;;5024392;28;20666;-94
2021/04/11 06:05:22;;;;;;;61.60;45.83;;;8.00;99.90;;;;;;5024807;28;20177;-94
2021/04/11 06:07:59;;;;;;;60.97;43.57;;;8.00;99.90;;;;;;5026243;28;20213;-94
2021/04/11 06:10:54;;;;;;;60.10;44.77;;;8.10;99.90;;;;;;5034134;28;20182;-95
2021/04/11 06:13:42;;;;;;;57.83;42.73;;;8.10;99.90;;;;;;5033836;28;20178;-93
2021/04/11 06:16:16;;;;;;;58.20;42.70;;;8.10;99.90;;;;;;5014427;28;20183;-93
2021/04/11 06:18:45;;;;;;;58.67;42.20;;;8.10;99.90;;;;;;5030575;28;20177;-94
2021/04/11 06:21:20;;;;;;;59.33;44.47;;;8.20;99.90;;;;;;5022576;28;20164;-93
2021/04/11 06:24:31;;;;;;;54.30;40.80;;;8.20;99.90;;;;;;5022867;28;20218;-94
2021/04/11 06:27:22;;;;;;;56.60;41.60;;;8.20;99.90;;;;;;4983110;28;20207;-92
2021/04/11 06:30:11;;;;;;;58.23;39.93;;;8.30;99.90;;;;;;5024857;28;20245;-91
2021/04/11 06:32:41;;;;;;;55.00;41.17;;;8.30;99.90;;;;;;5026169;28;20175;-93
2021/04/11 06:35:10;;;;;;;52.63;40.30;;;8.40;99.90;;;;;;5022534;28;20182;-92
2021/04/11 06:37:39;;;;;;;54.50;40.73;;;8.50;99.90;;;;;;5031420;28;20171;-93
2021/04/11 06:40:24;;;;;;;56.17;40.63;;;8.50;99.90;;;;;;5033723;28;20175;-94
2021/04/11 06:43:20;;;;;;;51.77;40.23;;;8.60;99.90;;;;;;5034187;28;20179;-94
2021/04/11 06:45:57;;;;;;;54.40;40.77;;;8.60;99.90;;;;;;5033721;28;20618;-92
2021/04/11 06:48:42;;;;;;;51.70;40.63;;;8.70;99.90;;;;;;5032710;28;20249;-93
2021/04/11 06:51:33;;;;;;;54.63;39.37;;;8.70;99.90;;;;;;5033146;28;20171;-93
2021/04/11 06:54:22;;;;;;;52.97;39.40;;;8.70;99.90;;;;;;5011091;28;20526;-93
2021/04/11 06:57:22;;;;;;;51.10;39.33;;;8.80;99.90;;;;;;5025609;28;20186;-93
2021/04/11 07:00:25;;;;;;;51.03;39.03;;;8.80;99.90;;;;;;5033148;28;20265;-93
2021/04/11 07:03:23;;;;;;;46.00;36.57;;;8.90;99.90;;;;;;5033585;28;20616;-94
2021/04/11 07:06:16;;;;;;;52.07;37.53;;;8.90;99.90;;;;;;5032949;28;20182;-94
2021/04/11 07:08:45;;;;;;;53.73;39.00;;;9.00;99.90;;;;;;5033535;28;20242;-95
2021/04/11 07:11:13;;;;;;;53.07;39.40;;;9.20;99.90;;;;;;5032776;28;20635;-95
2021/04/11 07:14:05;;;;;;;47.90;36.33;;;9.30;99.90;;;;;;5016058;28;20214;-95
2021/04/11 07:16:36;;;;;;;44.70;35.03;;;9.40;99.90;;;;;;4968186;28;20194;-94
2021/04/11 07:19:40;;;;;;;44.53;33.80;;;9.50;99.90;;;;;;5013697;28;20321;-95
2021/04/11 07:22:41;;;;;;;45.67;34.37;;;9.50;99.90;;;;;;4998019;28;20661;-93
2021/04/11 07:25:14;;;;;;;45.00;34.13;;;9.60;99.90;;;;;;4919876;29;20621;-93
2021/04/11 07:28:24;;;;;;;39.20;32.53;;;9.70;99.90;;;;;;4998402;28;20242;-92
2021/04/11 07:31:26;;;;;;;41.53;32.33;;;9.80;99.90;;;;;;5005833;28;20644;-92
2021/04/11 07:33:57;;;;;;;38.77;31.13;;;9.90;99.90;;;;;;5033424;28;20185;-94
2021/04/11 07:37:08;;;;;;;42.63;34.57;;;10.00;99.90;;;;;;5033062;28;20183;-93
2021/04/11 07:40:06;;;;;;;37.47;28.97;;;10.10;99.90;;;;;;5033333;28;20201;-94
2021/04/11 07:42:53;;;;;;;35.20;29.30;;;10.10;99.90;;;;;;5033131;28;20174;-94
2021/04/11 07:45:28;;;;;;;40.77;32.30;;;10.10;99.90;;;;;;5032999;28;20171;-94
2021/04/11 07:48:15;;;;;;;38.40;30.93;;;10.20;99.90;;;;;;5033492;28;20217;-94
2021/04/11 07:50:56;;;;;;;36.87;30.10;;;10.50;99.90;;;;;;5033036;28;20238;-93
2021/04/11 07:53:28;;;;;;;32.57;27.70;;;10.70;99.90;;;;;;5032717;28;20209;-94
2021/04/11 07:56:22;;;;;;;38.50;28.40;;;10.80;99.90;;;;;;5032610;28;20704;-94
2021/04/11 07:59:23;;;;;;;36.33;29.63;;;11.10;99.90;;;;;;5033364;28;20171;-94
2021/04/11 08:02:18;;;;;;;32.17;25.08;;;11.30;99.90;;;;;;5000811;28;20190;-94
2021/04/11 08:04:55;;;;;;;34.08;27.23;;;11.60;99.90;;;;;;5016750;28;20182;-94
2021/04/11 08:07:51;;;;;;;30.02;23.67;;;11.90;99.90;;;;;;5016793;28;20547;-93
2021/04/11 08:10:30;;;;;;;26.27;21.67;;;12.10;99.90;;;;;;4967324;28;20226;-93
2021/04/11 08:13:33;;;;;;;28.57;22.43;;;12.20;99.90;;;;;;5016604;28;20175;-93
2021/04/11 08:16:39;;;;;;;26.20;21.70;;;12.20;99.90;;;;;;5016530;28;20175;-92
2021/04/11 08:19:24;;;;;;;22.27;17.33;;;12.10;99.90;;;;;;5030527;28;20186;-92
2021/04/11 08:22:13;;;;;;;18.87;15.80;;;12.10;99.90;;;;;;5035876;28;20167;-93
2021/04/11 08:25:17;;;;;;;20.45;16.00;;;12.00;99.90;;;;;;5008666;28;20196;-93
2021/04/11 08:28:04;;;;;;;21.53;16.53;;;11.90;99.90;;;;;;5036396;28;20214;-94
2021/04/11 08:30:53;;;;;;;18.43;16.43;;;11.90;99.90;;;;;;5036138;28;20179;-94
2021/04/11 08:33:49;;;;;;;20.92;17.80;;;12.00;99.90;;;;;;5036530;28;20210;-93
2021/04/11 08:36:25;;;;;;;18.83;15.70;;;12.10;99.90;;;;;;5036087;28;20177;-94
2021/04/11 08:38:58;;;;;;;16.63;13.23;;;12.30;99.90;;;;;;5036057;28;20178;-94
2021/04/11 08:41:33;;;;;;;16.30;13.57;;;12.40;99.90;;;;;;5035777;28;20171;-94
2021/04/11 08:44:34;;;;;;;16.83;13.02;;;12.40;99.90;;;;;;5035833;28;20620;-93
2021/04/11 08:47:21;;;;;;;15.38;13.32;;;12.30;99.90;;;;;;5012679;28;20222;-93
2021/04/11 08:50:00;;;;;;;18.55;13.32;;;12.30;99.90;;;;;;5016539;28;20237;-95
2021/04/11 08:52:50;;;;;;;18.98;12.80;;;12.30;99.90;;;;;;5015601;28;20178;-94
2021/04/11 08:55:33;;;;;;;15.85;13.68;;;12.20;99.90;;;;;;5015789;28;20177;-94
2021/04/11 08:58:09;;;;;;;17.35;13.88;;;12.20;99.90;;;;;;5016396;28;20175;-94
2021/04/11 09:00:49;;;;;;;17.83;14.45;;;12.20;99.90;;;;;;5015531;28;20175;-94
2021/04/11 09:03:45;;;;;;;17.23;13.82;;;12.20;99.90;;;;;;5016000;28;20552;-96
2021/04/11 09:06:33;;;;;;;18.73;14.57;;;12.10;99.90;;;;;;5015161;28;20194;-96
2021/04/11 09:09:45;;;;;;;22.75;14.40;;;12.10;99.90;;;;;;5015452;28;20264;-96
2021/04/11 09:12:47;;;;;;;18.20;15.15;;;12.20;99.90;;;;;;4976440;28;20177;-96
2021/04/11 09:15:54;;;;;;;20.90;15.85;;;12.30;99.90;;;;;;4973214;28;20191;-96
2021/04/11 09:18:37;;;;;;;17.70;15.77;;;12.40;99.90;;;;;;4978072;28;20198;-96
2021/04/11 09:21:17;;;;;;;19.83;16.73;;;12.60;99.90;;;;;;5036027;28;20174;-96
2021/04/11 09:23:58;;;;;;;18.83;15.70;;;12.60;99.90;;;;;;5034955;28;20738;-96
2021/04/11 09:26:51;;;;;;;18.10;14.85;;;12.60;99.90;;;;;;5035201;28;20180;-95
2021/04/11 09:29:20;;;;;;;18.75;15.38;;;12.60;99.90;;;;;;5035442;28;20182;-96
2021/04/11 09:31:54;;;;;;;21.58;14.55;;;12.70;99.90;;;;;;5036469;28;20170;-96
2021/04/11 09:34:53;;;;;;;19.50;13.77;;;12.80;99.90;;;;;;5035200;28;20276;-96
2021/04/11 09:37:38;;;;;;;15.27;12.00;;;12.90;99.90;;;;;;5035363;28;20178;-96
2021/04/11 09:40:21;;;;;;;16.60;12.40;;;13.00;99.90;;;;;;5034864;28;20206;-96
2021/04/11 09:43:02;;;;;;;13.45;11.13;;;13.00;99.90;;;;;;5036131;28;20179;-96
2021/04/11 09:46:04;;;;;;;11.52;9.55;;;12.90;99.90;;;;;;5036033;28;20224;-96
2021/04/11 09:48:49;;;;;;;12.27;8.40;;;12.90;99.90;;;;;;5035557;28;20240;-95
2021/04/11 09:51:23;;;;;;;12.18;8.52;;;12.90;99.90;;;;;;5034641;28;20182;-96
2021/04/11 09:54:07;;;;;;;12.07;8.77;;;12.80;99.90;;;;;;5034679;28;20244;-96
2021/04/11 09:57:11;;;;;;;13.90;9.00;;;12.70;99.90;;;;;;5036316;28;20249;-96
2021/04/11 09:59:44;;;;;;;9.43;7.93;;;12.60;99.90;;;;;;5035921;28;20174;-96
2021/04/11 10:02:22;;;;;;;9.65;6.65;;;12.50;99.90;;;;;;5036119;28;20175;-96
2021/04/11 10:05:28;;;;;;;14.18;7.00;;;12.40;99.90;;;;;;5035618;28;20185;-96
2021/04/11 10:07:54;;;;;;;8.13;6.93;;;12.20;99.90;;;;;;4995858;28;20306;-96
2021/04/11 10:10:21;;;;;;;9.32;6.70;;;12.20;99.90;;;;;;5035050;28;20273;-96
2021/04/11 10:13:09;;;;;;;8.85;7.05;;;12.10;99.90;;;;;;5036287;28;20169;-96
2021/04/11 10:16:06;;;;;;;9.03;6.70;;;12.10;99.90;;;;;;5034635;28;20189;-96
2021/04/11 10:18:34;;;;;;;9.15;6.78;;;12.20;99.90;;;;;;5034314;28;20186;-96
2021/04/11 10:21:15;;;;;;;9.50;7.20;;;12.20;99.90;;;;;;5034557;28;20178;-96
2021/04/11 10:24:22;;;;;;;10.65;7.60;;;12.30;99.90;;;;;;5033735;28;20225;-96
2021/04/11 10:27:01;;;;;;;10.70;7.68;;;12.30;99.90;;;;;;5026777;28;20205;-92
2021/04/11 10:29:31;;;;;;;8.63;7.03;;;12.30;99.90;;;;;;5007181;28;20187;-92
2021/04/11 10:32:19;;;;;;;10.50;7.15;;;12.20;99.90;;;;;;5004599;28;20191;-93
2021/04/11 10:34:59;;;;;;;10.93;7.40;;;12.20;99.90;;;;;;5019542;28;20267;-92
2021/04/11 10:38:01;;;;;;;11.75;7.07;;;12.20;99.90;;;;;;5002370;28;20302;-92
2021/04/11 10:40:57;;;;;;;11.60;8.10;;;12.20;99.90;;;;;;5002941;28;20197;-93
2021/04/11 10:43:44;;;;;;;14.40;7.73;;;12.20;99.90;;;;;;5016845;28;20631;-95
2021/04/11 10:46:42;;;;;;;14.43;7.78;;;12.20;99.90;;;;;;5019530;28;20283;-95
2021/04/11 10:49:28;;;;;;;10.27;7.60;;;12.20;99.90;;;;;;5012718;28;20244;-92
2021/04/11 10:52:16;;;;;;;10.60;7.87;;;12.20;99.90;;;;;;5015742;28;20689;-94
2021/04/11 10:54:53;;;;;;;9.23;7.25;;;12.20;99.90;;;;;;5008164;28;20943;-93
2021/04/11 10:57:37;;;;;;;8.32;7.32;;;12.30;99.90;;;;;;5022319;28;20195;-90
2021/04/11 11:00:25;;;;;;;9.45;7.00;;;12.40;99.90;;;;;;5014976;28;20241;-93
2021/04/11 11:03:36;;;;;;;11.00;7.28;;;12.40;99.90;;;;;;5022024;28;20261;-91
2021/04/11 11:06:40;;;;;;;11.00;7.60;;;12.40;99.90;;;;;;4996122;28;20223;-93
2021/04/11 11:09:52;;;;;;;10.80;6.88;;;12.50;99.90;;;;;;4918986;28;20652;-94
2021/04/11 11:12:45;;;;;;;6.90;6.00;;;12.40;99.90;;;;;;4876406;29;20812;-93
2021/04/11 11:15:11;;;;;;;7.47;6.28;;;12.50;99.90;;;;;;4942724;28;20256;-91
2021/04/11 11:17:49;;;;;;;9.25;6.97;;;12.50;99.90;;;;;;4984754;28;20202;-92
2021/04/11 11:20:41;;;;;;;8.15;5.93;;;12.50;99.90;;;;;;5002207;28;20257;-92
2021/04/11 11:23:22;;;;;;;8.85;6.68;;;12.50;99.90;;;;;;5017191;28;20239;-92
2021/04/11 11:26:24;;;;;;;9.32;6.97;;;12.40;99.90;;;;;;4994816;28;20565;-91
2021/04/11 11:29:08;;;;;;;8.27;6.90;;;12.20;99.90;;;;;;4984174;28;21088;-93
2021/04/11 11:31:38;;;;;;;14.10;7.50;;;12.20;99.90;;;;;;5003492;28;20438;-93
2021/04/11 11:34:24;;;;;;;10.30;6.85;;;12.20;99.90;;;;;;4981928;28;20780;-94
2021/04/11 11:37:12;;;;;;;10.40;6.78;;;12.10;99.90;;;;;;5004152;28;20222;-92
2021/04/11 11:39:37;;;;;;;9.05;6.32;;;12.10;99.90;;;;;;5003583;28;20263;-94
2021/04/11 11:42:33;;;;;;;10.13;5.57;;;12.20;99.90;;;;;;5029282;28;20182;-94
2021/04/11 11:45:16;;;;;;;7.75;5.40;;;12.30;99.90;;;;;;5022227;28;20641;-96
2021/04/11 11:48:20;;;;;;;8.48;7.68;;;12.40;99.90;;;;;;5014589;28;20219;-95
2021/04/11 11:51:00;;;;;;;9.25;6.72;;;12.40;99.90;;;;;;4988175;28;20232;-96
2021/04/11 11:53:36;;;;;;;6.97;6.20;;;12.30;99.90;;;;;;4995377;28;20199;-96
2021/04/11 11:56:23;;;;;;;7.00;4.67;;;12.10;99.90;;;;;;4997219;28;20225;-96
2021/04/11 11:59:35;;;;;;;6.88;4.57;;;12.10;99.90;;;;;;4997161;28;20172;-96
2021/04/11 12:02:25;;;;;;;5.63;4.20;;;11.90;99.90;;;;;;4997629;28;20599;-95
2021/04/11 12:04:58;;;;;;;3.40;3.10;;;11.80;99.90;;;;;;4998065;28;20179;-96
2021/04/11 12:07:36;;;;;;;3.72;3.08;;;11.60;99.90;;;;;;4998923;28;20204;-96
2021/04/11 12:10:25;;;;;;;6.45;3.00;;;11.60;99.90;;;;;;4997501;28;20183;-95
2021/04/11 12:13:09;;;;;;;4.38;3.13;;;11.50;99.90;;;;;;5013248;28;20187;-96
2021/04/11 12:16:04;;;;;;;3.60;2.22;;;11.50;99.90;;;;;;5017302;28;20172;-95
2021/04/11 12:18:40;;;;;;;3.13;2.33;;;11.40;99.90;;;;;;5017139;28;20522;-96
2021/04/11 12:21:26;;;;;;;3.13;2.53;;;11.40;99.90;;;;;;5016955;28;20174;-96
2021/04/11 12:24:20;;;;;;;4.20;2.23;;;11.40;99.90;;;;;;5016338;28;20230;-96
2021/04/11 12:26:57;;;;;;;3.87;2.67;;;11.40;99.90;;;;;;5016502;28;20179;-96
2021/04/11 12:29:27;;;;;;;3.90;3.00;;;11.40;99.90;;;;;;5016758;28;20207;-96
2021/04/11 12:32:16;;;;;;;4.00;3.03;;;11.40;99.90;;;;;;5016144;28;20213;-95
2021/04/11 12:34:55;;;;;;;3.90;3.43;;;11.40;99.90;;;;;;5004374;28;20187;-96
2021/04/11 12:37:42;;;;;;;4.27;3.87;;;11.30;99.90;;;;;;5016242;28;20258;-96
2021/04/11 12:40:19;;;;;;;6.10;5.30;;;11.30;99.90;;;;;;5016827;28;20518;-96
2021/04/11 12:43:09;;;;;;;5.90;5.30;;;11.20;99.90;;;;;;5016267;28;20214;-96
2021/04/11 12:45:48;;;;;;;7.47;6.17;;;11.10;99.90;;;;;;5014428;28;20183;-96
2021/04/11 12:48:36;;;;;;;7.13;6.37;;;11.10;99.90;;;;;;5016315;28;20202;-96
2021/04/11 12:51:19;;;;;;;7.30;6.60;;;10.90;99.90;;;;;;5017050;28;20160;-96
2021/04/11 12:54:08;;;;;;;10.37;6.63;;;10.80;99.90;;;;;;5015822;28;20175;-95
2021/04/11 12:56:41;;;;;;;8.00;7.20;;;10.70;99.90;;;;;;5015861;28;20171;-95
2021/04/11 12:59:20;;;;;;;10.53;8.60;;;10.70;99.90;;;;;;5015110;28;20167;-96
2021/04/11 13:01:54;;;;;;;9.83;8.83;;;10.60;99.90;;;;;;5015702;28;20175;-94
2021/04/11 13:04:38;;;;;;;9.47;8.47;;;10.50;99.90;;;;;;5015852;28;20182;-96
2021/04/11 13:07:15;;;;;;;11.30;8.70;;;10.30;99.90;;;;;;5015382;28;20171;-96
2021/04/11 13:10:02;;;;;;;9.40;8.40;;;10.10;99.90;;;;;;5016199;28;20186;-96
2021/04/11 13:12:40;;;;;;;13.03;8.50;;;10.10;99.90;;;;;;5015331;28;20175;-95
2021/04/11 13:15:31;;;;;;;11.80;9.10;;;9.90;99.90;;;;;;5016075;28;20178;-96
2021/04/11 13:18:12;;;;;;;10.93;9.63;;;9.90;99.90;;;;;;5010005;28;20172;-95
2021/04/11 13:20:48;;;;;;;11.47;9.67;;;9.80;99.90;;;;;;4997662;28;20611;-96
2021/04/11 13:23:23;;;;;;;10.57;9.03;;;9.80;99.90;;;;;;5012302;28;20231;-95
2021/04/11 13:26:01;;;;;;;10.27;9.13;;;9.70;99.90;;;;;;5011494;28;20172;-96
2021/04/11 13:28:56;;;;;;;8.40;7.33;;;9.50;99.90;;;;;;4996581;28;20203;-95
2021/04/11 13:31:33;;;;;;;10.17;7.73;;;9.60;99.90;;;;;;4996118;28;20175;-96
2021/04/11 13:34:20;;;;;;;6.93;6.23;;;9.40;99.90;;;;;;4981696;28;20180;-95
2021/04/11 13:36:48;;;;;;;7.00;6.30;;;9.30;99.90;;;;;;4996376;28;20175;-96
2021/04/11 13:39:30;;;;;;;7.37;6.33;;;9.30;99.90;;;;;;4996297;28;20190;-96
2021/04/11 13:42:23;;;;;;;7.07;5.80;;;9.20;99.90;;;;;;5002166;28;20194;-96
2021/04/11 13:45:14;;;;;;;8.03;6.20;;;9.20;99.90;;;;;;5006815;28;20176;-95
2021/04/11 13:47:50;;;;;;;7.60;6.77;;;9.10;99.90;;;;;;5000511;28;20657;-96